createdAt,value
2022-10-04T00:02:34.697Z,92.30
2022-10-04T00:05:27.499Z,92.40
2022-10-04T00:08:28.877Z,92.60
2022-10-04T00:11:17.466Z,92.70
2022-10-04T00:14:31.477Z,92.70
2022-10-04T00:17:23.967Z,92.80
2022-10-04T00:20:47.447Z,92.90
2022-10-04T00:23:38.868Z,92.90
2022-10-04T00:26:24.336Z,93.10
2022-10-04T00:29:33.800Z,93.10
2022-10-04T00:32:28.685Z,93.20
2022-10-04T00:35:27.083Z,93.20
2022-10-04T00:38:21.207Z,93.20
2022-10-04T00:41:08.837Z,93.10
2022-10-04T00:43:57.411Z,93.20
2022-10-04T00:46:45.582Z,93.20
2022-10-04T00:49:40.288Z,93.20
2022-10-04T00:52:29.254Z,93.10
2022-10-04T00:55:39.500Z,93.10
2022-10-04T00:58:44.952Z,93.20
2022-10-04T01:01:41.057Z,93.20
2022-10-04T01:04:28.972Z,93.20
2022-10-04T01:07:22.218Z,93.30
2022-10-04T01:10:27.731Z,93.30
2022-10-04T01:13:58.978Z,93.30
2022-10-04T01:16:44.611Z,93.50
2022-10-04T01:19:32.406Z,93.50
2022-10-04T01:22:48.681Z,93.40
2022-10-04T01:25:56.959Z,93.60
2022-10-04T01:28:42.724Z,93.60
2022-10-04T01:31:33.926Z,93.40
2022-10-04T01:34:25.040Z,93.50
2022-10-04T01:37:14.503Z,93.40
2022-10-04T01:40:02.923Z,93.50
2022-10-04T01:42:54.977Z,93.50
2022-10-04T01:45:53.724Z,93.70
2022-10-04T01:48:44.303Z,93.80
2022-10-04T01:51:38.104Z,93.80
2022-10-04T01:54:36.138Z,93.80
2022-10-04T01:57:31.839Z,93.90
2022-10-04T02:00:20.700Z,94.00
2022-10-04T02:03:13.814Z,94.10
2022-10-04T02:06:03.004Z,94.20
2022-10-04T02:08:57.351Z,94.30
2022-10-04T02:11:44.553Z,94.40
2022-10-04T02:14:35.897Z,94.50
2022-10-04T02:17:25.837Z,94.60
2022-10-04T02:20:21.474Z,94.50
2022-10-04T02:23:09.768Z,94.60
2022-10-04T02:25:55.496Z,94.50
2022-10-04T02:28:40.955Z,94.50
2022-10-04T02:31:46.402Z,94.40
2022-10-04T02:34:32.607Z,94.50
2022-10-04T02:37:19.060Z,94.50
2022-10-04T02:40:30.148Z,94.60
2022-10-04T02:43:22.504Z,94.50
2022-10-04T02:46:30.754Z,94.50
2022-10-04T02:49:33.258Z,94.50
2022-10-04T02:52:26.311Z,94.50
2022-10-04T02:55:20.449Z,94.60
2022-10-04T02:58:10.878Z,94.70
2022-10-04T03:00:58.887Z,94.80
2022-10-04T03:03:47.427Z,95.00
2022-10-04T03:06:33.399Z,95.20
2022-10-04T03:09:26.133Z,95.20
2022-10-04T03:12:15.121Z,95.30
2022-10-04T03:15:00.862Z,95.20
2022-10-04T03:17:46.849Z,95.30
2022-10-04T03:20:39.172Z,95.40
2022-10-04T03:23:24.682Z,95.60
2022-10-04T03:26:38.210Z,95.70
2022-10-04T03:29:27.523Z,95.80
2022-10-04T03:32:15.739Z,95.70
2022-10-04T03:35:05.549Z,95.70
2022-10-04T03:37:57.364Z,95.60
2022-10-04T03:40:51.712Z,95.60
2022-10-04T03:43:44.308Z,95.70
2022-10-04T03:46:29.926Z,95.80
2022-10-04T03:49:26.465Z,95.90
2022-10-04T03:52:21.051Z,95.90
2022-10-04T03:55:08.189Z,95.90
2022-10-04T03:57:53.747Z,95.90
2022-10-04T04:01:03.306Z,95.90
2022-10-04T04:04:16.159Z,96.00
2022-10-04T04:07:08.494Z,96.10
2022-10-04T04:10:22.968Z,96.30
2022-10-04T04:13:13.978Z,96.40
2022-10-04T04:16:02.681Z,96.40
2022-10-04T04:18:49.962Z,96.50
2022-10-04T04:21:36.965Z,96.50
2022-10-04T04:24:32.114Z,96.60
2022-10-04T04:27:23.891Z,96.80
2022-10-04T04:30:17.056Z,96.90
2022-10-04T04:33:10.816Z,97.00
2022-10-04T04:36:05.225Z,97.10
2022-10-04T04:39:09.316Z,97.10
2022-10-04T04:41:54.911Z,97.20
2022-10-04T04:45:06.459Z,97.20
2022-10-04T04:47:57.305Z,97.20
2022-10-04T04:50:43.605Z,97.20
2022-10-04T04:53:30.265Z,97.20
2022-10-04T04:56:23.331Z,97.30
2022-10-04T04:59:17.900Z,97.40
2022-10-04T05:02:03.816Z,97.30
2022-10-04T05:04:50.412Z,97.40
2022-10-04T05:07:36.140Z,97.50
2022-10-04T05:10:31.688Z,97.50
2022-10-04T05:13:17.391Z,97.60
2022-10-04T05:16:03.862Z,97.60
2022-10-04T05:18:59.104Z,97.70
2022-10-04T05:21:49.702Z,97.80
2022-10-04T05:24:39.529Z,97.70
2022-10-04T05:27:35.973Z,97.80
2022-10-04T05:30:36.599Z,97.80
2022-10-04T05:33:39.560Z,97.80
2022-10-04T05:36:31.568Z,97.90
2022-10-04T05:39:29.239Z,97.90
2022-10-04T05:42:25.961Z,97.80
2022-10-04T05:45:19.207Z,97.90
2022-10-04T05:48:09.016Z,97.80
2022-10-04T05:50:54.285Z,97.80
2022-10-04T05:53:42.015Z,97.70
2022-10-04T05:56:37.719Z,97.80
2022-10-04T05:59:43.157Z,97.90
2022-10-04T06:02:36.954Z,98.00
2022-10-04T06:05:51.970Z,98.20
2022-10-04T06:08:43.697Z,98.60
2022-10-04T06:11:35.057Z,98.40
2022-10-04T06:14:30.667Z,98.50
2022-10-04T06:17:34.387Z,98.60
2022-10-04T06:20:54.912Z,98.70
2022-10-04T06:24:10.376Z,98.70
2022-10-04T06:27:17.338Z,98.70
2022-10-04T06:30:31.831Z,98.80
2022-10-04T06:33:17.409Z,98.70
2022-10-04T06:36:25.316Z,98.80
2022-10-04T06:39:38.118Z,99.00
2022-10-04T06:43:08.106Z,99.20
2022-10-04T06:45:56.429Z,99.30
2022-10-04T06:49:04.820Z,99.40
2022-10-04T06:52:08.561Z,99.50
2022-10-04T06:55:20.816Z,99.60
2022-10-04T06:58:33.281Z,99.70
2022-10-04T07:01:29.989Z,99.80
2022-10-04T07:05:06.553Z,99.90
2022-10-04T07:08:06.355Z,99.90
2022-10-04T07:11:19.812Z,99.90
2022-10-04T07:14:23.527Z,99.90
2022-10-04T07:17:16.246Z,99.90
2022-10-04T07:20:02.581Z,99.90
2022-10-04T07:23:05.025Z,99.90
2022-10-04T07:26:00.837Z,99.90
2022-10-04T07:29:06.403Z,99.90
2022-10-04T07:32:04.248Z,99.90
2022-10-04T07:34:59.099Z,99.90
2022-10-04T07:38:01.644Z,99.90
2022-10-04T07:41:07.406Z,99.90
2022-10-04T07:43:59.307Z,99.90
2022-10-04T07:47:18.154Z,99.90
2022-10-04T07:50:37.234Z,99.70
2022-10-04T07:53:53.439Z,99.50
2022-10-04T07:57:00.737Z,99.20
2022-10-04T08:00:22.293Z,98.70
2022-10-04T08:03:10.665Z,98.50
2022-10-04T08:06:18.611Z,98.00
2022-10-04T08:09:40.280Z,98.00
2022-10-04T08:12:51.946Z,97.50
2022-10-04T08:15:42.788Z,97.30
2022-10-04T08:19:02.337Z,96.80
2022-10-04T08:22:14.591Z,95.70
2022-10-04T08:25:26.263Z,95.30
2022-10-04T08:28:38.398Z,94.70
2022-10-04T08:31:27.008Z,94.60
2022-10-04T08:34:32.160Z,94.70
2022-10-04T08:37:42.412Z,94.90
2022-10-04T08:40:49.645Z,94.20
2022-10-04T08:43:56.940Z,93.10
2022-10-04T08:46:53.097Z,92.40
2022-10-04T08:49:57.944Z,92.40
2022-10-04T08:53:30.589Z,92.10
2022-10-04T08:56:21.290Z,92.10
2022-10-04T08:59:37.196Z,91.80
2022-10-04T09:02:52.480Z,91.50
2022-10-04T09:06:12.344Z,91.70
2022-10-04T09:09:35.395Z,91.60
2022-10-04T09:12:44.428Z,91.70
2022-10-04T09:15:51.369Z,91.60
2022-10-04T09:18:53.352Z,91.40
2022-10-04T09:21:47.572Z,91.20
2022-10-04T09:25:02.166Z,91.30
2022-10-04T09:28:38.174Z,91.40
2022-10-04T09:31:55.944Z,91.00
2022-10-04T09:34:52.588Z,91.00
2022-10-04T09:38:03.886Z,90.80
2022-10-04T09:41:03.700Z,89.50
2022-10-04T09:44:20.067Z,89.00
2022-10-04T09:47:32.096Z,88.10
2022-10-04T09:50:37.303Z,87.30
2022-10-04T09:53:44.327Z,86.60
2022-10-04T09:56:35.582Z,86.00
2022-10-04T09:59:27.358Z,83.10
2022-10-04T10:02:40.372Z,81.40
2022-10-04T10:05:44.152Z,81.00
2022-10-04T10:08:55.617Z,81.50
2022-10-04T10:12:11.571Z,81.00
2022-10-04T10:15:12.123Z,80.60
2022-10-04T10:18:15.895Z,80.60
2022-10-04T10:21:19.823Z,81.00
2022-10-04T10:24:36.121Z,79.00
2022-10-04T10:27:43.144Z,77.40
2022-10-04T10:30:59.336Z,76.70
2022-10-04T10:34:02.600Z,75.50
2022-10-04T10:37:00.438Z,75.60
2022-10-04T10:40:12.880Z,74.50
2022-10-04T10:43:07.139Z,74.60
2022-10-04T10:46:28.391Z,75.60
2022-10-04T10:49:46.360Z,76.20
2022-10-04T10:52:54.596Z,74.30
2022-10-04T10:56:17.768Z,72.80
2022-10-04T10:59:40.582Z,73.50
2022-10-04T11:02:48.643Z,72.80
2022-10-04T11:06:14.414Z,73.30
2022-10-04T11:09:05.524Z,73.30
2022-10-04T11:12:32.726Z,68.20
2022-10-04T11:16:22.304Z,65.70
2022-10-04T11:19:29.297Z,64.10
2022-10-04T11:23:15.282Z,61.00
2022-10-04T11:26:34.187Z,56.20
2022-10-04T11:29:45.623Z,55.20
2022-10-04T11:33:16.245Z,55.10
2022-10-04T11:36:24.555Z,56.00
2022-10-04T11:39:44.838Z,56.20
2022-10-04T11:42:39.035Z,56.90
2022-10-04T11:45:38.263Z,57.80
2022-10-04T11:48:47.520Z,56.60
2022-10-04T11:52:04.671Z,55.40
2022-10-04T11:55:21.176Z,54.70
2022-10-04T11:58:33.045Z,53.80
2022-10-04T12:01:30.318Z,52.00
2022-10-04T12:04:53.827Z,50.90
2022-10-04T12:07:43.942Z,50.50
2022-10-04T12:10:39.029Z,52.40
2022-10-04T12:13:27.255Z,51.40
2022-10-04T12:16:57.647Z,51.30
2022-10-04T12:20:30.970Z,48.80
2022-10-04T12:23:48.706Z,46.20
2022-10-04T12:26:54.878Z,44.50
2022-10-04T12:30:00.024Z,41.20
2022-10-04T12:32:58.422Z,41.10
2022-10-04T12:36:14.796Z,39.70
2022-10-04T12:39:06.136Z,39.30
2022-10-04T12:42:28.166Z,39.20
2022-10-04T12:45:28.697Z,39.40
2022-10-04T12:48:33.142Z,37.40
2022-10-04T12:51:58.161Z,37.50
2022-10-04T12:54:50.723Z,37.10
2022-10-04T12:57:42.509Z,36.10
2022-10-04T13:00:32.523Z,36.80
2022-10-04T13:03:42.644Z,37.00
2022-10-04T13:06:52.201Z,36.20
2022-10-04T13:10:22.620Z,35.40
2022-10-04T13:13:21.363Z,36.60
2022-10-04T13:20:31.045Z,36.60
2022-10-04T13:23:27.207Z,37.20
2022-10-04T13:26:34.015Z,37.10
2022-10-04T13:34:39.172Z,36.00
2022-10-04T13:37:45.447Z,37.10
2022-10-04T13:40:49.596Z,38.00
2022-10-04T13:43:40.860Z,38.50
2022-10-04T13:46:45.148Z,38.70
2022-10-04T13:50:00.590Z,38.20
2022-10-04T13:53:22.135Z,38.40
2022-10-04T13:56:37.695Z,37.60
2022-10-04T13:59:47.383Z,37.50
2022-10-04T14:02:55.674Z,38.50
2022-10-04T14:06:18.983Z,37.20
2022-10-04T14:09:21.684Z,36.40
2022-10-04T14:12:45.403Z,37.60
2022-10-04T14:15:56.280Z,37.70
2022-10-04T14:19:03.925Z,39.20
2022-10-04T14:22:27.843Z,39.70
2022-10-04T14:25:35.198Z,41.60
2022-10-04T14:29:07.358Z,40.30
2022-10-04T14:32:23.527Z,38.40
2022-10-04T14:35:34.863Z,37.60
2022-10-04T14:38:56.799Z,38.60
2022-10-04T14:41:56.310Z,39.40
2022-10-04T14:45:18.127Z,40.70
2022-10-04T14:48:27.142Z,42.90
2022-10-04T14:51:29.136Z,44.50
2022-10-04T14:54:25.491Z,45.40
2022-10-04T14:57:21.555Z,45.70
2022-10-04T15:00:17.426Z,47.20
2022-10-04T15:03:49.151Z,47.50
2022-10-04T15:06:53.954Z,47.40
2022-10-04T15:10:06.163Z,50.00
2022-10-04T15:13:16.079Z,51.20
2022-10-04T15:16:28.953Z,52.70
2022-10-04T15:19:20.364Z,53.90
2022-10-04T15:22:13.888Z,55.30
2022-10-04T15:24:59.441Z,56.10
2022-10-04T15:27:54.140Z,57.30
2022-10-04T15:31:03.232Z,58.10
2022-10-04T15:34:16.713Z,58.80
2022-10-04T15:37:27.827Z,59.50
2022-10-04T15:40:50.001Z,59.70
2022-10-04T15:44:13.122Z,58.90
2022-10-04T15:47:08.121Z,58.50
2022-10-04T15:50:27.569Z,58.90
2022-10-04T15:53:39.127Z,60.20
2022-10-04T15:56:37.547Z,60.60
2022-10-04T15:59:55.535Z,61.70
2022-10-04T16:03:09.185Z,62.10
2022-10-04T16:06:06.186Z,62.90
2022-10-04T16:08:51.379Z,64.20
2022-10-04T16:12:23.515Z,65.20
2022-10-04T16:15:31.528Z,66.20
2022-10-04T16:18:36.784Z,67.20
2022-10-04T16:22:23.718Z,67.80
2022-10-04T16:25:25.327Z,68.80
2022-10-04T16:28:29.902Z,69.60
2022-10-04T16:31:24.842Z,70.10
2022-10-04T16:34:42.175Z,70.50
2022-10-04T16:37:53.064Z,70.80
2022-10-04T16:40:50.910Z,71.10
2022-10-04T16:43:49.372Z,71.40
2022-10-04T16:46:44.794Z,71.80
2022-10-04T16:49:41.744Z,72.10
2022-10-04T16:52:59.808Z,72.40
2022-10-04T16:56:10.352Z,72.70
2022-10-04T16:59:05.886Z,73.10
2022-10-04T17:02:36.330Z,73.30
2022-10-04T17:05:30.856Z,73.80
2022-10-04T17:08:16.307Z,74.10
2022-10-04T17:11:27.835Z,74.40
2022-10-04T17:14:49.343Z,74.80
2022-10-04T17:18:04.738Z,75.10
2022-10-04T17:20:59.414Z,75.50
2022-10-04T17:24:07.386Z,75.70
2022-10-04T17:27:13.940Z,76.10
2022-10-04T17:30:15.328Z,76.20
2022-10-04T17:33:12.814Z,76.40
2022-10-04T17:36:09.790Z,76.60
2022-10-04T17:39:32.346Z,76.80
2022-10-04T17:42:33.605Z,76.90
2022-10-04T17:45:40.740Z,77.20
2022-10-04T17:48:50.513Z,77.40
2022-10-04T17:52:07.288Z,77.50
2022-10-04T17:55:17.817Z,77.70
2022-10-04T17:58:15.315Z,77.90
2022-10-04T18:01:30.395Z,78.00
2022-10-04T18:04:36.442Z,78.00
2022-10-04T18:07:26.551Z,78.10
2022-10-04T18:11:06.085Z,78.40
2022-10-04T18:14:05.078Z,78.60
2022-10-04T18:17:01.071Z,78.80
2022-10-04T18:19:48.660Z,79.60
2022-10-04T18:23:02.579Z,79.10
2022-10-04T18:26:10.922Z,79.10
2022-10-04T18:28:59.643Z,79.30
2022-10-04T18:31:47.157Z,79.50
2022-10-04T18:34:32.695Z,79.60
2022-10-04T18:37:31.961Z,79.70
2022-10-04T18:40:33.516Z,79.80
2022-10-04T18:43:30.348Z,80.10
2022-10-04T18:46:21.378Z,80.20
2022-10-04T18:49:24.412Z,81.00
2022-10-04T18:52:10.106Z,80.50
2022-10-04T18:55:25.391Z,80.70
2022-10-04T18:58:55.172Z,80.80
2022-10-04T19:02:12.988Z,81.00
2022-10-04T19:05:15.295Z,81.20
2022-10-04T19:08:30.739Z,81.40
2022-10-04T19:11:20.664Z,81.30
2022-10-04T19:14:42.651Z,81.00
2022-10-04T19:17:43.257Z,80.80
2022-10-04T19:20:35.845Z,80.60
2022-10-04T19:23:46.584Z,80.70
2022-10-04T19:26:39.431Z,80.70
2022-10-04T19:30:01.723Z,80.80
2022-10-04T19:32:58.935Z,80.90
2022-10-04T19:35:56.159Z,81.20
2022-10-04T19:38:56.639Z,81.50
2022-10-04T19:41:59.923Z,81.80
2022-10-04T19:45:06.441Z,82.00
2022-10-04T19:47:58.339Z,83.00
2022-10-04T19:50:48.714Z,82.50
2022-10-04T19:53:51.819Z,82.70
2022-10-04T19:56:49.116Z,82.80
2022-10-04T19:59:40.559Z,83.10
2022-10-04T20:02:26.130Z,83.30
2022-10-04T20:05:16.824Z,83.40
2022-10-04T20:08:08.199Z,83.50
2022-10-04T20:11:17.155Z,83.50
2022-10-04T20:14:10.940Z,83.30
2022-10-04T20:17:00.770Z,83.10
2022-10-04T20:19:46.038Z,81.10
2022-10-04T20:22:55.005Z,80.00
2022-10-04T20:25:46.042Z,78.30
2022-10-04T20:28:32.126Z,78.40
2022-10-04T20:31:39.346Z,78.70
2022-10-04T20:34:33.181Z,79.10
2022-10-04T20:37:21.640Z,79.10
2022-10-04T20:40:07.456Z,79.10
2022-10-04T20:43:14.641Z,79.50
2022-10-04T20:46:01.772Z,79.70
2022-10-04T20:48:48.353Z,80.50
2022-10-04T20:51:33.952Z,80.90
2022-10-04T20:54:20.907Z,81.10
2022-10-04T20:57:17.838Z,81.10
2022-10-04T21:00:05.810Z,81.00
2022-10-04T21:03:13.541Z,80.30
2022-10-04T21:06:01.793Z,80.00
2022-10-04T21:08:47.454Z,79.30
2022-10-04T21:11:53.472Z,78.60
2022-10-04T21:14:39.084Z,78.50
2022-10-04T21:17:30.414Z,78.20
2022-10-04T21:20:47.910Z,78.20
2022-10-04T21:23:34.840Z,77.80
2022-10-04T21:26:26.942Z,77.60
2022-10-04T21:29:12.320Z,77.30
2022-10-04T21:31:58.968Z,77.20
2022-10-04T21:34:59.857Z,77.20
2022-10-04T21:37:45.118Z,77.30
2022-10-04T21:40:30.514Z,77.20
2022-10-04T21:43:15.868Z,77.40
2022-10-04T21:46:01.629Z,77.40
2022-10-04T21:48:46.830Z,77.60
2022-10-04T21:51:36.747Z,77.70
2022-10-04T21:54:23.114Z,77.90
2022-10-04T21:57:12.823Z,78.10
2022-10-04T21:59:58.237Z,78.60
2022-10-04T22:02:43.802Z,79.20
2022-10-04T22:05:32.193Z,79.70
2022-10-04T22:08:17.742Z,80.20
2022-10-04T22:11:03.399Z,81.00
2022-10-04T22:13:49.022Z,81.50
2022-10-04T22:16:34.673Z,82.10
2022-10-04T22:19:19.849Z,82.70
2022-10-04T22:22:05.352Z,83.50
2022-10-04T22:24:50.858Z,83.70
2022-10-04T22:27:36.096Z,84.10
2022-10-04T22:30:27.872Z,84.30
2022-10-04T22:33:34.785Z,84.50
2022-10-04T22:36:42.833Z,84.70
2022-10-04T22:39:30.622Z,84.70
2022-10-04T22:42:16.919Z,84.70
2022-10-04T22:45:02.451Z,84.90
2022-10-04T22:47:48.713Z,85.00
2022-10-04T22:50:37.265Z,85.00
2022-10-04T22:53:28.764Z,84.90
2022-10-04T22:56:14.972Z,84.70
2022-10-04T22:59:00.242Z,84.80
2022-10-04T23:01:46.473Z,84.80
2022-10-04T23:04:31.790Z,84.60
2022-10-04T23:07:20.227Z,84.70
2022-10-04T23:10:06.166Z,84.50
2022-10-04T23:12:51.635Z,84.30
2022-10-04T23:15:37.027Z,84.20
2022-10-04T23:18:22.611Z,83.80
2022-10-04T23:21:25.968Z,83.70
2022-10-04T23:24:21.946Z,83.40
2022-10-04T23:27:16.265Z,83.30
2022-10-04T23:30:03.266Z,82.90
2022-10-04T23:32:51.898Z,82.90
2022-10-04T23:35:38.615Z,82.50
2022-10-04T23:38:25.025Z,82.30
2022-10-04T23:41:11.968Z,82.10
2022-10-04T23:43:57.726Z,82.10
2022-10-04T23:46:44.302Z,81.90
2022-10-04T23:49:30.303Z,81.60
2022-10-04T23:52:26.160Z,81.20
2022-10-04T23:55:17.898Z,80.80
2022-10-04T23:58:14.215Z,80.20
